Time;durP1;ratioP1;P1;durP2;ratioP2;P2;SDS_P1;SDS_P2;PMS_P1;PMS_P2;Temp;Humidity;BMP_temperature;BMP_pressure;BME280_temperature;BME280_humidity;BME280_pressure;Samples;Min_cycle;Max_cycle;Signal;HPM_P1;HPM_P2
2024/03/09 00:00:48;;;;;;;198.05;89.87;;;;;;;-2.62;67.74;100641.30;1762515;81;25314;-65
2024/03/09 00:03:18;;;;;;;210.72;93.27;;;;;;;-2.63;67.57;100643.64;1762503;81;25821;-65
2024/03/09 00:05:46;;;;;;;205.18;89.05;;;;;;;-2.65;67.90;100643.84;1762443;81;25343;-65
2024/03/09 00:08:17;;;;;;;197.60;88.42;;;;;;;-2.66;67.73;100641.41;1762531;81;25359;-65
2024/03/09 00:10:44;;;;;;;191.53;81.80;;;;;;;-2.67;67.94;100639.80;1762434;81;26053;-65
2024/03/09 00:13:11;;;;;;;175.62;80.35;;;;;;;-2.70;68.29;100630.95;1762492;81;25511;-65
2024/03/09 00:15:45;;;;;;;166.65;72.62;;;;;;;-2.69;68.86;100638.69;1762482;81;27962;-64
2024/03/09 00:18:08;;;;;;;159.70;74.95;;;;;;;-2.66;69.42;100631.62;1762053;81;25934;-65
2024/03/09 00:20:36;;;;;;;163.82;70.32;;;;;;;-2.63;68.71;100629.87;1762509;81;25492;-64
2024/03/09 00:23:08;;;;;;;165.37;71.62;;;;;;;-2.61;69.18;100630.98;1762459;81;25634;-64
2024/03/09 00:25:35;;;;;;;161.52;73.83;;;;;;;-2.62;69.22;100628.06;1762568;81;25525;-64
2024/03/09 00:28:05;;;;;;;166.07;74.63;;;;;;;-2.62;69.25;100628.06;1762709;81;27531;-64
2024/03/09 00:30:34;;;;;;;163.75;72.22;;;;;;;-2.62;69.16;100626.73;1762522;81;25647;-62
2024/03/09 00:33:05;;;;;;;168.00;74.47;;;;;;;-2.66;69.31;100625.00;1762460;81;25365;-64
2024/03/09 00:35:34;;;;;;;161.57;72.35;;;;;;;-2.67;69.40;100626.04;1762504;81;26826;-63
2024/03/09 00:38:03;;;;;;;160.00;71.17;;;;;;;-2.68;69.38;100626.25;1762613;81;25540;-65
2024/03/09 00:40:31;;;;;;;161.68;74.25;;;;;;;-2.72;69.60;100624.55;1762484;81;28368;-65
2024/03/09 00:43:04;;;;;;;176.57;75.62;;;;;;;-2.72;69.41;100617.92;1762361;81;25485;-65
2024/03/09 00:45:30;;;;;;;168.15;78.12;;;;;;;-2.73;69.50;100622.10;1762255;81;25464;-64
2024/03/09 00:47:58;;;;;;;164.25;75.00;;;;;;;-2.76;69.29;100618.55;1762518;81;25673;-65
2024/03/09 00:50:26;;;;;;;151.53;69.82;;;;;;;-2.79;69.34;100617.16;1762492;81;25339;-65
2024/03/09 00:52:54;;;;;;;158.18;72.27;;;;;;;-2.80;69.14;100620.02;1762415;81;27976;-64
2024/03/09 00:55:22;;;;;;;154.78;65.55;;;;;;;-2.80;69.41;100621.34;1762340;81;25538;-64
2024/03/09 00:57:55;;;;;;;151.27;68.20;;;;;;;-2.84;69.81;100617.78;1762591;81;25505;-64
2024/03/09 01:00:20;;;;;;;152.07;66.62;;;;;;;-2.84;69.76;100619.63;1762071;81;25619;-64
2024/03/09 01:02:52;;;;;;;155.52;69.32;;;;;;;-2.85;69.75;100618.80;1762516;81;25378;-64
2024/03/09 01:05:22;;;;;;;145.32;68.15;;;;;;;-2.88;69.83;100615.27;1762497;81;27706;-64
2024/03/09 01:07:49;;;;;;;150.57;66.87;;;;;;;-2.90;69.71;100610.67;1762401;81;25348;-64
2024/03/09 01:10:17;;;;;;;140.43;65.52;;;;;;;-2.91;69.27;100616.18;1762436;81;25380;-63
2024/03/09 01:12:45;;;;;;;143.60;63.85;;;;;;;-2.91;69.78;100609.56;1762492;81;25999;-66
2024/03/09 01:15:13;;;;;;;140.75;64.53;;;;;;;-2.93;69.64;100606.32;1762488;81;25497;-61
2024/03/09 01:17:41;;;;;;;140.03;65.87;;;;;;;-2.97;69.68;100606.45;1762416;81;27090;-63
2024/03/09 01:20:12;;;;;;;145.50;66.07;;;;;;;-3.01;69.69;100602.91;1762312;81;25350;-64
2024/03/09 01:22:43;;;;;;;135.82;61.73;;;;;;;-3.02;69.55;100610.53;1762433;81;25482;-63
2024/03/09 01:25:10;;;;;;;131.35;61.23;;;;;;;-3.07;69.60;100606.37;1762651;81;26086;-64
2024/03/09 01:27:39;;;;;;;142.93;61.80;;;;;;;-3.13;69.77;100603.77;1762619;81;25347;-63
2024/03/09 01:30:08;;;;;;;147.02;65.08;;;;;;;-3.13;69.77;100603.77;1762402;81;27532;-65
2024/03/09 01:32:39;;;;;;;;;;;;;;;-3.17;70.00;100602.05;1764899;81;25331;-65
2024/03/09 01:35:08;;;;;;;149.80;63.00;;;;;;;-3.20;70.40;100609.11;1762149;81;25505;-65
2024/03/09 01:37:35;;;;;;;148.65;66.87;;;;;;;-3.23;70.40;100610.84;1762374;81;25662;-65
2024/03/09 01:40:06;;;;;;;153.65;65.70;;;;;;;-3.28;70.28;100603.53;1762038;81;25308;-66
2024/03/09 01:42:33;;;;;;;150.42;70.12;;;;;;;-3.31;70.58;100600.49;1761868;81;27892;-65
2024/03/09 01:45:04;;;;;;;152.02;66.40;;;;;;;-3.32;70.60;100599.69;1761762;81;25563;-65
2024/03/09 01:47:32;;;;;;;141.25;65.30;;;;;;;-3.34;70.65;100597.74;1761977;81;25504;-66
2024/03/09 01:50:01;;;;;;;146.33;67.40;;;;;;;-3.39;70.98;100594.42;1762047;81;25627;-66
2024/03/09 01:52:32;;;;;;;138.87;61.87;;;;;;;-3.40;71.30;100596.76;1762133;81;25361;-66
2024/03/09 01:55:04;;;;;;;149.55;66.02;;;;;;;-3.41;71.18;100591.67;1761914;81;27200;-65
2024/03/09 01:57:30;;;;;;;144.77;65.20;;;;;;;-3.44;70.92;100596.05;1761798;81;25481;-66
2024/03/09 01:59:58;;;;;;;134.93;64.47;;;;;;;-3.47;70.81;100593.84;1761956;81;25503;-66
2024/03/09 02:02:26;;;;;;;148.38;65.08;;;;;;;-3.49;70.95;100598.51;1761848;81;25630;-65
2024/03/09 02:04:55;;;;;;;139.72;63.70;;;;;;;-3.51;71.21;100596.59;1761848;81;25527;-66
2024/03/09 02:07:24;;;;;;;138.18;64.42;;;;;;;-3.54;71.15;100596.52;1761862;81;27094;-66
2024/03/09 02:09:53;;;;;;;144.28;66.90;;;;;;;-3.53;71.42;100595.99;1761903;81;25481;-65
2024/03/09 02:12:23;;;;;;;151.22;70.35;;;;;;;-3.55;71.41;100594.88;1761833;81;25541;-65
2024/03/09 02:14:51;;;;;;;146.62;68.83;;;;;;;-3.58;71.40;100600.57;1761796;81;25615;-65
2024/03/09 02:17:18;;;;;;;155.80;69.97;;;;;;;-3.62;71.23;100602.02;1761528;81;25567;-66
2024/03/09 02:19:45;;;;;;;160.37;70.37;;;;;;;-3.66;71.38;100604.75;1761840;81;27596;-66
2024/03/09 02:22:18;;;;;;;169.90;75.08;;;;;;;-3.69;71.67;100607.32;1761744;81;25500;-66
2024/03/09 02:24:55;;;;;;;158.25;73.78;;;;;;;-3.71;71.85;100593.99;1761886;81;25343;-65
2024/03/09 02:27:27;;;;;;;160.48;76.95;;;;;;;-3.73;72.02;100604.77;1761749;81;26001;-66
2024/03/09 02:29:52;;;;;;;175.65;78.87;;;;;;;-3.74;72.36;100601.04;1761865;81;25534;-65
2024/03/09 02:32:21;;;;;;;170.43;79.58;;;;;;;-3.77;72.28;100599.09;1761305;81;27598;-65
2024/03/09 02:34:50;;;;;;;193.70;80.90;;;;;;;-3.77;72.56;100595.64;1761777;81;25977;-64
2024/03/09 02:37:20;;;;;;;208.25;90.57;;;;;;;-3.77;72.81;100591.67;1761812;81;25534;-65
2024/03/09 02:39:51;;;;;;;193.68;93.55;;;;;;;-3.74;72.98;100594.43;1755448;81;25623;-65
2024/03/09 02:42:18;;;;;;;188.12;85.07;;;;;;;-3.76;72.92;100584.86;1745408;81;25490;-65
2024/03/09 02:44:46;;;;;;;192.20;87.47;;;;;;;-3.74;72.93;100598.39;1747834;82;27278;-65
2024/03/09 02:47:15;;;;;;;178.35;85.50;;;;;;;-3.75;72.85;100596.23;1740098;82;25550;-65
2024/03/09 02:49:43;;;;;;;177.65;81.28;;;;;;;-3.80;72.81;100595.56;1740390;82;25476;-65
2024/03/09 02:52:12;;;;;;;180.50;80.87;;;;;;;-3.80;73.03;100594.23;1740354;82;25619;-65
2024/03/09 02:54:40;;;;;;;179.17;83.83;;;;;;;-3.81;73.22;100586.51;1740582;82;25372;-65
2024/03/09 02:57:07;;;;;;;183.70;87.08;;;;;;;-3.79;73.35;100590.55;1740351;82;27783;-65
2024/03/09 02:59:36;;;;;;;175.22;84.55;;;;;;;-3.80;73.30;100583.66;1740359;82;25652;-64
2024/03/09 03:03:44;;;;;;;180.32;81.90;;;;;;;-3.80;73.32;100595.56;1740325;82;25395;-65
2024/03/09 03:04:36;;;;;;;178.93;78.83;;;;;;;-3.80;73.25;100596.05;1740304;82;26272;-65
2024/03/09 03:07:03;;;;;;;175.05;79.35;;;;;;;-3.81;73.48;100582.02;1718505;82;25559;-65
2024/03/09 03:09:30;;;;;;;174.57;76.95;;;;;;;-3.80;73.72;100594.23;1740327;82;27269;-65
2024/03/09 03:11:57;;;;;;;156.43;75.45;;;;;;;-3.80;73.83;100583.66;1740245;82;25380;-64
2024/03/09 03:14:25;;;;;;;165.68;75.20;;;;;;;-3.79;73.75;100585.27;1740286;82;25380;-63
2024/03/09 03:16:55;;;;;;;168.57;73.40;;;;;;;-3.79;73.60;100587.11;1740300;82;26393;-65
2024/03/09 03:19:21;;;;;;;153.75;74.27;;;;;;;-3.80;73.58;100590.76;1740518;82;25520;-66
2024/03/09 03:21:48;;;;;;;171.07;76.02;;;;;;;-3.83;73.60;100585.87;1740439;82;27227;-65
2024/03/09 03:24:15;;;;;;;154.57;71.28;;;;;;;-3.86;73.26;100579.70;1740356;82;25811;-65
2024/03/09 03:26:46;;;;;;;148.75;66.33;;;;;;;-3.88;73.35;100582.55;1740655;82;25343;-65
2024/03/09 03:29:13;;;;;;;163.00;70.75;;;;;;;-3.88;73.60;100577.27;1740513;81;32308;-65
2024/03/09 03:31:41;;;;;;;136.68;64.03;;;;;;;-3.87;73.96;100576.23;1740436;82;25291;-64
2024/03/09 03:34:09;;;;;;;151.53;69.32;;;;;;;-3.87;74.01;100576.75;1740525;82;28036;-63
2024/03/09 03:36:38;;;;;;;159.32;74.80;;;;;;;-3.85;74.02;100576.03;1740255;82;25360;-61
2024/03/09 03:39:08;;;;;;;152.90;69.85;;;;;;;-3.86;74.01;100573.09;1740341;82;25331;-65
2024/03/09 03:41:36;;;;;;;170.70;75.00;;;;;;;-3.87;74.24;100572.27;1712223;82;25566;-65
2024/03/09 03:44:05;;;;;;;173.68;81.02;;;;;;;-3.87;74.10;100580.20;1707977;84;25530;-65
2024/03/09 03:46:35;;;;;;;162.70;70.30;;;;;;;-3.87;74.11;100566.98;1707705;84;27114;-64
2024/03/09 03:49:04;;;;;;;159.75;72.15;;;;;;;-3.89;73.95;100576.16;1707785;84;25758;-62
2024/03/09 03:51:31;;;;;;;152.57;62.67;;;;;;;-3.88;74.08;100572.47;1707861;84;25380;-65
2024/03/09 03:53:59;;;;;;;156.85;67.30;;;;;;;-3.90;74.08;100571.35;1707663;84;25646;-62
2024/03/09 03:56:26;;;;;;;167.85;73.40;;;;;;;-3.92;73.83;100569.43;1707759;84;25533;-65
2024/03/09 03:58:55;;;;;;;138.97;56.10;;;;;;;-3.92;74.03;100562.02;1707835;84;27623;-64
2024/03/09 04:01:23;;;;;;;136.92;58.50;;;;;;;-3.95;74.04;100569.84;1707633;84;25486;-66
2024/03/09 04:03:51;;;;;;;77.60;33.95;;;;;;;-3.95;74.31;100566.70;1707829;84;25546;-65
2024/03/09 04:06:20;;;;;;;143.00;60.80;;;;;;;-3.93;75.26;100559.89;1707685;84;25632;-65
2024/03/09 04:08:47;;;;;;;;;;;;;;;-3.88;75.06;100566.70;1710264;84;25406;-65
2024/03/09 04:11:14;;;;;;;123.65;51.10;;;;;;;-3.86;74.68;100564.66;1707710;83;27286;-65
2024/03/09 04:13:41;;;;;;;138.07;57.93;;;;;;;-3.88;74.51;100564.05;1707602;84;25487;-65
2024/03/09 04:16:10;;;;;;;129.82;53.38;;;;;;;-3.88;74.35;100557.45;1707695;84;25473;-65
2024/03/09 04:18:38;;;;;;;125.45;53.83;;;;;;;-3.90;74.10;100556.81;1707797;84;25489;-65
2024/03/09 04:21:07;;;;;;;136.20;60.40;;;;;;;-3.91;74.16;100565.78;1707712;84;25476;-65
2024/03/09 04:23:36;;;;;;;142.65;64.07;;;;;;;-3.91;73.61;100567.11;1707952;83;27312;-65
2024/03/09 04:26:05;;;;;;;140.45;59.10;;;;;;;-3.94;73.50;100567.51;1707790;83;32914;-65
2024/03/09 04:28:32;;;;;;;124.90;55.83;;;;;;;-3.96;74.34;100569.55;1707706;84;25463;-65
2024/03/09 04:31:01;;;;;;;126.87;54.33;;;;;;;-3.99;74.19;100561.52;1707871;84;25532;-65
2024/03/09 04:33:28;;;;;;;137.12;56.08;;;;;;;-3.99;74.22;100554.91;1707684;84;25345;-64
2024/03/09 04:35:57;;;;;;;122.67;48.60;;;;;;;-3.99;74.43;100564.16;1707675;84;27578;-64
2024/03/09 04:38:31;;;;;;;132.27;57.93;;;;;;;-4.00;74.54;100561.23;1707726;84;25321;-65
2024/03/09 04:40:57;;;;;;;116.50;52.65;;;;;;;-3.98;74.78;100562.34;1714828;81;25372;-65
2024/03/09 04:43:32;;;;;;;116.88;52.62;;;;;;;-4.00;75.00;100569.16;1723078;83;25624;-65
2024/03/09 04:45:58;;;;;;;112.25;51.30;;;;;;;-4.02;74.68;100560.62;1722696;83;25357;-65
2024/03/09 04:48:25;;;;;;;120.77;51.18;;;;;;;-4.04;74.67;100553.91;1723064;83;26746;-65
2024/03/09 04:50:54;;;;;;;127.60;55.63;;;;;;;-4.05;74.94;100553.11;1722950;83;25506;-65
2024/03/09 04:53:21;;;;;;;116.70;52.55;;;;;;;-4.07;74.93;100552.51;1723002;80;25485;-65
2024/03/09 04:55:51;;;;;;;119.57;47.90;;;;;;;-4.11;74.72;100550.47;1723001;83;25951;-65
2024/03/09 04:58:19;;;;;;;118.50;49.75;;;;;;;-4.15;74.59;100551.39;1722983;83;25320;-65
2024/03/09 05:00:48;;;;;;;120.70;54.63;;;;;;;-4.15;74.82;100554.03;1723167;83;28235;-65
2024/03/09 05:03:17;;;;;;;110.65;51.68;;;;;;;-4.16;74.83;100549.76;1723222;83;25834;-64
2024/03/09 05:05:44;;;;;;;105.43;45.20;;;;;;;-4.18;75.29;100553.12;1723165;83;32340;-65
2024/03/09 05:08:13;;;;;;;102.32;41.23;;;;;;;-4.20;75.35;100545.91;1723212;83;25902;-65
2024/03/09 05:10:41;;;;;;;119.67;52.57;;;;;;;-4.20;75.70;100547.23;1723282;83;25332;-65
2024/03/09 05:13:10;;;;;;;119.70;53.10;;;;;;;-4.18;75.72;100546.52;1723039;83;27772;-65
2024/03/09 05:15:38;;;;;;;118.00;51.48;;;;;;;-4.18;75.55;100546.52;1723024;83;25832;-65
2024/03/09 05:18:07;;;;;;;102.45;46.75;;;;;;;-4.18;75.57;100549.95;1723030;83;25379;-65
2024/03/09 05:20:37;;;;;;;122.02;54.40;;;;;;;-4.17;75.79;100540.20;1722996;83;25571;-65
2024/03/09 05:23:07;;;;;;;127.12;57.85;;;;;;;-4.15;75.70;100537.67;1723190;83;25368;-65
2024/03/09 05:25:34;;;;;;;132.10;59.67;;;;;;;-4.13;75.76;100548.03;1723177;83;27897;-65
2024/03/09 05:28:01;;;;;;;134.25;56.73;;;;;;;-4.09;75.67;100545.78;1722963;83;25459;-65
2024/03/09 05:30:29;;;;;;;128.42;56.58;;;;;;;-4.09;75.83;100539.98;1723053;83;25363;-64
2024/03/09 05:33:00;;;;;;;132.80;56.77;;;;;;;-4.09;75.62;100543.95;1723141;83;25589;-65
2024/03/09 05:35:31;;;;;;;118.45;56.63;;;;;;;-4.06;76.20;100549.34;1723064;83;25126;-65
2024/03/09 05:38:04;;;;;;;116.45;52.13;;;;;;;-4.04;76.51;100544.14;1723058;83;28195;-64
2024/03/09 05:40:33;;;;;;;117.37;52.90;;;;;;;-3.99;76.55;100552.27;1720545;82;25428;-66
2024/03/09 05:43:06;;;;;;;113.72;49.15;;;;;;;-3.96;76.77;100552.37;1707736;84;25343;-71
2024/03/09 05:45:35;;;;;;;128.80;54.35;;;;;;;-3.90;76.69;100555.49;1707237;83;26146;-65
2024/03/09 05:48:03;;;;;;;114.45;47.83;;;;;;;-3.84;76.85;100550.71;1707785;84;25559;-65
2024/03/09 05:50:30;;;;;;;116.90;49.42;;;;;;;-3.76;76.92;100551.81;1707817;84;27545;-65
2024/03/09 05:53:02;;;;;;;117.22;54.63;;;;;;;-3.67;76.83;100554.23;1707606;84;25657;-65
2024/03/09 05:55:30;;;;;;;114.30;49.18;;;;;;;-3.58;76.97;100555.62;1707671;84;25368;-65
2024/03/09 05:57:59;;;;;;;120.13;57.70;;;;;;;-3.47;77.50;100547.56;1707891;84;26473;-65
2024/03/09 06:00:31;;;;;;;126.82;53.80;;;;;;;-3.35;77.72;100553.81;1707789;84;25499;-65
2024/03/09 06:03:03;;;;;;;128.00;56.68;;;;;;;-3.23;77.95;100548.15;1707717;84;27210;-65
2024/03/09 06:05:31;;;;;;;131.75;58.02;;;;;;;-3.08;78.26;100550.52;1707400;83;25349;-65
2024/03/09 06:07:58;;;;;;;118.30;53.35;;;;;;;-2.93;78.49;100559.47;1707809;84;25563;-65
2024/03/09 06:10:27;;;;;;;130.80;54.90;;;;;;;-2.79;78.61;100557.58;1707613;84;25642;-67
2024/03/09 06:12:56;;;;;;;123.10;51.95;;;;;;;-2.66;78.63;100562.76;1707704;84;25484;-65
2024/03/09 06:15:25;;;;;;;118.70;52.83;;;;;;;-2.52;78.86;100559.53;1707626;84;27884;-60
2024/03/09 06:18:00;;;;;;;128.10;57.90;;;;;;;-2.33;78.81;100563.04;1707662;84;25574;-60
2024/03/09 06:20:32;;;;;;;132.45;58.15;;;;;;;-2.15;79.24;100565.43;1707682;83;25495;-60
2024/03/09 06:22:58;;;;;;;131.00;52.53;;;;;;;-1.95;79.85;100558.09;1707633;83;25620;-60
2024/03/09 06:25:29;;;;;;;128.82;54.35;;;;;;;-1.72;80.44;100558.79;1707729;84;25350;-60
2024/03/09 06:28:01;;;;;;;149.72;58.48;;;;;;;-1.49;79.61;100558.63;1707674;83;27211;-59
2024/03/09 06:30:30;;;;;;;143.60;63.78;;;;;;;-1.28;79.62;100558.67;1707220;83;25410;-60
2024/03/09 06:33:00;;;;;;;126.42;51.98;;;;;;;-1.04;79.92;100553.45;1707717;84;25544;-60
2024/03/09 06:35:29;;;;;;;125.05;55.43;;;;;;;-0.84;79.80;100551.86;1707569;84;26284;-60
2024/03/09 06:38:04;;;;;;;124.20;55.98;;;;;;;-0.54;80.97;100550.49;1707756;84;25490;-59
2024/03/09 06:40:36;;;;;;;137.80;58.30;;;;;;;-0.24;80.11;100553.07;1708541;81;27197;-61
2024/03/09 06:43:09;;;;;;;123.78;54.77;;;;;;;0.08;80.77;100554.55;1744919;82;26018;-59
2024/03/09 06:45:41;;;;;;;157.60;72.72;;;;;;;0.46;81.48;100553.22;1744773;82;25340;-58
2024/03/09 06:48:10;;;;;;;153.70;73.37;;;;;;;0.86;81.35;100555.87;1744960;82;25619;-60
2024/03/09 06:50:44;;;;;;;156.52;70.83;;;;;;;1.24;80.80;100556.28;1745225;82;25382;-62
2024/03/09 06:53:12;;;;;;;151.82;71.95;;;;;;;1.60;80.34;100548.87;1744937;81;27710;-62
2024/03/09 06:55:39;;;;;;;139.80;66.02;;;;;;;1.99;79.53;100552.41;1744972;82;25743;-61
2024/03/09 06:58:08;;;;;;;133.55;63.33;;;;;;;2.37;77.99;100554.78;1744960;82;25498;-61
2024/03/09 07:00:37;;;;;;;123.83;58.27;;;;;;;2.68;76.91;100553.02;1745183;82;26458;-60
2024/03/09 07:03:06;;;;;;;120.82;60.55;;;;;;;3.08;76.42;100559.84;1745138;82;28783;-60
2024/03/09 07:05:36;;;;;;;123.82;61.35;;;;;;;3.46;74.97;100563.41;1745001;82;27591;-61
2024/03/09 07:08:09;;;;;;;132.43;64.50;;;;;;;3.82;74.71;100562.34;1744855;82;25792;-60
2024/03/09 07:10:36;;;;;;;122.55;55.55;;;;;;;4.21;74.01;100568.20;1745018;82;25551;-61
2024/03/09 07:13:05;;;;;;;104.72;52.45;;;;;;;4.62;73.19;100575.09;1745021;82;26059;-60
2024/03/09 07:15:32;;;;;;;106.67;52.60;;;;;;;4.95;70.26;100569.02;1744941;82;25453;-61
2024/03/09 07:18:02;;;;;;;107.22;52.45;;;;;;;5.26;70.31;100569.11;1745073;82;28033;-62
2024/03/09 07:20:33;;;;;;;100.92;49.05;;;;;;;5.68;69.83;100569.37;1745004;82;29670;-61
2024/03/09 07:23:01;;;;;;;105.40;47.30;;;;;;;6.12;68.49;100574.19;1745025;81;25521;-61
2024/03/09 07:25:28;;;;;;;90.13;46.97;;;;;;;6.56;67.47;100563.86;1745149;82;25975;-60
2024/03/09 07:27:59;;;;;;;106.30;50.00;;;;;;;6.96;66.45;100563.38;1744984;82;25512;-61
2024/03/09 07:30:32;;;;;;;94.20;43.87;;;;;;;7.38;65.73;100561.48;1745009;82;27194;-62
2024/03/09 07:32:59;;;;;;;80.97;40.33;;;;;;;7.80;64.06;100554.69;1744889;81;25984;-61
2024/03/09 07:35:29;;;;;;;90.28;44.38;;;;;;;8.20;62.28;100563.42;1745022;82;25497;-61
2024/03/09 07:37:59;;;;;;;85.80;45.05;;;;;;;8.49;61.30;100565.29;1745134;82;25742;-63
2024/03/09 07:40:33;;;;;;;85.07;42.53;;;;;;;8.90;60.45;100562.63;1745124;82;25495;-61
2024/03/09 07:43:02;;;;;;;77.10;42.53;;;;;;;9.28;59.44;100555.86;1710158;82;27216;-63
2024/03/09 07:45:29;;;;;;;84.03;43.42;;;;;;;9.73;58.56;100565.12;1707651;84;25408;-63
2024/03/09 07:48:01;;;;;;;78.77;40.13;;;;;;;10.23;57.20;100565.05;1708024;84;25567;-61
2024/03/09 07:50:28;;;;;;;80.85;42.38;;;;;;;10.70;54.76;100565.77;1707737;83;25599;-63
2024/03/09 07:52:57;;;;;;;75.08;37.98;;;;;;;11.44;53.71;100564.66;1707738;84;25490;-64
2024/03/09 07:55:32;;;;;;;64.72;31.60;;;;;;;11.97;51.46;100565.80;1707854;84;27897;-62
2024/03/09 07:57:59;;;;;;;63.10;33.35;;;;;;;12.60;49.59;100570.58;1707689;84;26121;-63
2024/03/09 08:00:28;;;;;;;65.92;33.02;;;;;;;13.21;48.80;100569.84;1707733;84;25549;-61
2024/03/09 08:02:59;;;;;;;48.65;26.87;;;;;;;13.73;47.54;100571.75;1707787;84;25643;-63
2024/03/09 08:05:29;;;;;;;68.10;47.10;;;;;;;14.24;45.77;100564.54;1707819;84;25512;-63
2024/03/09 08:08:09;;;;;;;57.88;31.20;;;;;;;14.55;44.73;100562.84;1707753;84;27253;-63
2024/03/09 08:10:38;;;;;;;57.73;31.97;;;;;;;14.86;42.93;100559.57;1707110;83;25386;-60
2024/03/09 08:13:04;;;;;;;51.63;30.90;;;;;;;15.34;42.73;100555.52;1707486;83;25571;-61
2024/03/09 08:15:32;;;;;;;48.40;29.95;;;;;;;15.66;41.34;100554.47;1707659;84;26585;-63
2024/03/09 08:18:00;;;;;;;46.00;28.00;;;;;;;15.82;41.52;100553.30;1707883;84;25578;-61
2024/03/09 08:20:30;;;;;;;44.17;27.97;;;;;;;16.07;40.66;100555.48;1707918;84;28185;-62
2024/03/09 08:23:01;;;;;;;43.25;25.40;;;;;;;15.85;40.65;100547.16;1707716;84;25604;-61
2024/03/09 08:25:27;;;;;;;40.90;25.92;;;;;;;15.84;39.75;100550.45;1707669;83;27975;-62
2024/03/09 08:27:59;;;;;;;38.63;23.62;;;;;;;15.75;38.96;100547.55;1707794;84;25785;-63
2024/03/09 08:30:26;;;;;;;39.42;25.40;;;;;;;15.41;38.41;100549.50;1707775;84;25543;-62
2024/03/09 08:32:58;;;;;;;37.53;23.42;;;;;;;15.13;38.24;100547.34;1707867;84;27218;-62
2024/03/09 08:35:31;;;;;;;35.95;21.40;;;;;;;15.29;38.00;100542.10;1707484;83;25467;-61
2024/03/09 08:38:00;;;;;;;34.58;20.48;;;;;;;15.46;37.76;100539.75;1707733;84;25472;-61
2024/03/09 08:40:30;;;;;;;33.90;20.00;;;;;;;16.01;37.25;100541.85;1707738;84;26402;-63
2024/03/09 08:42:58;;;;;;;;;;;;;;;16.51;37.26;100534.45;1709914;81;25511;-62
2024/03/09 08:45:28;;;;;;;40.90;22.87;;;;;;;17.21;36.56;100532.81;1707825;84;27786;-62
2024/03/09 08:47:56;;;;;;;35.70;21.02;;;;;;;17.92;36.17;100536.67;1707594;84;25727;-64
2024/03/09 08:50:26;;;;;;;32.98;21.12;;;;;;;18.56;35.60;100534.44;1707897;84;25470;-63
2024/03/09 08:52:55;;;;;;;32.48;20.02;;;;;;;19.13;34.68;100529.41;1707744;84;32862;-63
2024/03/09 08:55:25;;;;;;;32.90;20.20;;;;;;;19.58;34.23;100527.90;1707819;84;25487;-63
2024/03/09 08:57:53;;;;;;;31.45;20.00;;;;;;;19.78;32.52;100533.61;1707639;84;27141;-63
2024/03/09 09:00:24;;;;;;;29.25;18.67;;;;;;;19.82;31.97;100524.06;1707580;84;25982;-63
2024/03/09 09:02:53;;;;;;;28.83;19.77;;;;;;;20.07;31.17;100523.08;1707674;84;25541;-63
2024/03/09 09:05:21;;;;;;;31.70;19.02;;;;;;;20.15;28.97;100526.16;1707840;84;25960;-62
2024/03/09 09:07:50;;;;;;;30.88;19.35;;;;;;;19.86;29.25;100525.49;1707829;83;25499;-63
2024/03/09 09:10:20;;;;;;;30.20;18.95;;;;;;;19.85;29.35;100526.64;1707673;84;27663;-63
2024/03/09 09:12:54;;;;;;;30.92;21.33;;;;;;;19.68;28.89;100527.33;1707393;83;25515;-63
2024/03/09 09:15:17;;;;;;;32.45;21.23;;;;;;;19.20;28.89;100517.99;1707196;83;25456;-63
2024/03/09 09:17:46;;;;;;;33.50;21.23;;;;;;;19.28;29.26;100516.78;1707761;84;25985;-63
2024/03/09 09:20:15;;;;;;;31.50;20.45;;;;;;;19.74;29.37;100513.52;1707664;84;25491;-64
2024/03/09 09:22:47;;;;;;;31.37;21.33;;;;;;;20.24;29.64;100515.49;1707901;84;27243;-53
2024/03/09 09:25:19;;;;;;;28.35;18.40;;;;;;;20.01;29.18;100508.09;1707538;83;25689;-53
2024/03/09 09:27:45;;;;;;;29.18;17.85;;;;;;;19.60;29.38;100512.67;1707459;83;25329;-53
2024/03/09 09:30:16;;;;;;;23.25;16.42;;;;;;;19.25;29.56;100505.16;1707639;84;25602;-56
2024/03/09 09:32:43;;;;;;;23.77;17.23;;;;;;;19.09;29.63;100508.00;1707666;84;25399;-53
2024/03/09 09:35:11;;;;;;;23.60;17.12;;;;;;;19.45;29.20;100500.45;1707624;84;27652;-54
2024/03/09 09:37:40;;;;;;;;;;;;;;;19.66;28.28;100500.80;1710119;84;25526;-54
2024/03/09 09:40:13;;;;;;;23.67;15.90;;;;;;;20.11;27.75;100500.61;1707681;84;25512;-56
2024/03/09 09:42:43;;;;;;;24.65;16.05;;;;;;;20.45;27.76;100495.77;1715845;81;25943;-53
2024/03/09 09:45:21;;;;;;;25.97;15.55;;;;;;;20.18;25.86;100501.30;1723072;83;25517;-52
2024/03/09 09:47:50;;;;;;;21.10;13.90;;;;;;;19.53;26.53;100491.16;1722225;80;27924;-51
2024/03/09 09:50:19;;;;;;;;;;;;;;;19.86;27.50;100493.34;1725489;83;25803;-56
2024/03/09 09:52:49;;;;;;;24.80;14.68;;;;;;;20.35;26.55;100494.48;1723147;83;25535;-53
2024/03/09 09:55:21;;;;;;;27.87;16.52;;;;;;;20.79;27.06;100485.68;1722934;83;25977;-53
2024/03/09 09:57:51;;;;;;;24.18;14.83;;;;;;;20.78;25.87;100487.42;1723155;83;25491;-53
2024/03/09 10:00:23;;;;;;;22.55;15.38;;;;;;;20.75;25.68;100484.83;1723023;83;27153;-54
2024/03/09 10:02:58;;;;;;;22.50;13.90;;;;;;;20.39;25.38;100487.08;1722925;83;25581;-55
2024/03/09 10:05:34;;;;;;;23.00;16.55;;;;;;;20.61;26.14;100475.79;1723058;83;25473;-57
2024/03/09 10:08:09;;;;;;;23.02;16.27;;;;;;;21.13;25.95;100476.05;1723017;83;25641;-55
2024/03/09 10:10:47;;;;;;;22.80;15.08;;;;;;;21.84;26.18;100476.53;1723039;83;25459;-55
2024/03/09 10:13:17;;;;;;;21.40;15.25;;;;;;;22.28;25.98;100467.42;1722932;83;27154;-66
2024/03/09 10:15:49;;;;;;;22.93;15.45;;;;;;;22.54;25.28;100474.66;1722906;83;25578;-66
2024/03/09 10:18:19;;;;;;;23.00;16.85;;;;;;;22.30;24.82;100471.95;1723085;83;25368;-66
2024/03/09 10:20:46;;;;;;;;;;;;;;;21.99;24.28;100467.20;1725535;83;25979;-66
2024/03/09 10:23:19;;;;;;;24.85;15.10;;;;;;;21.34;24.18;100471.95;1723192;83;25492;-66
2024/03/09 10:25:48;;;;;;;22.67;16.40;;;;;;;20.55;23.87;100473.17;1723077;83;27994;-69
2024/03/09 10:28:18;;;;;;;;;;;;;;;19.77;25.56;100462.03;1725473;83;26027;-68
2024/03/09 10:30:45;;;;;;;22.73;15.25;;;;;;;19.74;26.15;100455.09;1722999;83;25429;-69
2024/03/09 10:33:15;;;;;;;;;;;;;;;19.57;25.37;100459.90;1725507;83;26298;-71
2024/03/09 10:35:48;;;;;;;25.15;14.58;;;;;;;19.63;26.23;100456.85;1722932;83;25175;-70
2024/03/09 10:38:19;;;;;;;23.70;14.75;;;;;;;19.81;25.77;100445.62;1721512;83;27210;-68
2024/03/09 10:40:48;;;;;;;22.25;15.55;;;;;;;19.72;25.97;100447.81;1721733;83;26158;-69
2024/03/09 10:43:17;;;;;;;24.90;16.55;;;;;;;19.88;25.91;100442.20;1710552;82;25562;-71
2024/03/09 10:45:51;;;;;;;22.67;15.05;;;;;;;20.09;26.46;100441.72;1741645;82;25705;-64
2024/03/09 10:48:22;;;;;;;23.83;15.18;;;;;;;20.41;25.24;100440.79;1736360;82;25689;-68
2024/03/09 10:51:03;;;;;;;24.25;14.83;;;;;;;20.39;25.89;100434.88;1736780;82;27222;-67
2024/03/09 10:53:51;;;;;;;25.45;14.35;;;;;;;20.18;24.48;100439.52;1736641;82;25621;-67
2024/03/09 10:56:23;;;;;;;21.25;13.78;;;;;;;19.88;24.69;100441.61;1737476;82;25323;-68
2024/03/09 10:58:52;;;;;;;22.75;13.50;;;;;;;19.37;24.45;100433.69;1737285;82;25546;-66
2024/03/09 11:01:22;;;;;;;21.20;13.60;;;;;;;19.47;25.42;100434.45;1737412;82;32334;-66
2024/03/09 11:03:50;;;;;;;25.32;14.30;;;;;;;19.69;25.76;100419.72;1737317;82;27170;-71
2024/03/09 11:06:20;;;;;;;23.27;14.18;;;;;;;20.04;25.28;100420.88;1737297;82;25421;-66
2024/03/09 11:08:54;;;;;;;19.92;12.85;;;;;;;20.16;24.61;100397.91;1737366;82;25470;-67
2024/03/09 11:11:25;;;;;;;18.77;12.25;;;;;;;20.55;25.34;100409.98;1737387;82;25635;-66
2024/03/09 11:13:53;;;;;;;18.55;12.10;;;;;;;21.00;24.98;100415.02;1737507;82;25505;-68
2024/03/09 11:16:24;;;;;;;21.87;12.10;;;;;;;21.34;24.90;100412.80;1737539;82;27562;-69